TRA6082 LFBE-EHRD
Flight info
| Callsign | TRA6082 |
|---|---|
| Flight time | 1h 12m |
| Altitude | 36000 |
| Route | BUGUS A34 LMG DCT TUDRA DCT BOKNO UN858 VANAD UN874 ARSAF DCT EGOZE N874 VEKIN N873 FERDI Y18 DENUT |
| Aircraft | B738/M-SDE2E3FGHIRWXY/LB1 |
Departure
| Time | 2026-04-19 03:41 |
|---|---|
| Airport | Bergerac Dordogne-Périgord airport (LFBE) |
Arrival
| Time | 2026-04-19 04:54 |
|---|---|
| Airport | Rotterdam The Hague Airport (EHRD) |
| Time | Latitude | Longitude | Altitude | Speed | Heading |
|---|---|---|---|---|---|
| 2026-04-19 03:41 | 44.82714 | 0.47065 | 2190 ft | 215 kts | 275° |
| 2026-04-19 03:41 | 44.82823 | 0.44867 | 3023 ft | 230 kts | 275° |
| 2026-04-19 03:42 | 44.82948 | 0.42562 | 3701 ft | 247 kts | 276° |
| 2026-04-19 03:42 | 44.83476 | 0.40227 | 4433 ft | 257 kts | 304° |
| 2026-04-19 03:42 | 44.84796 | 0.38544 | 5362 ft | 262 kts | 333° |
| 2026-04-19 03:42 | 44.86562 | 0.37984 | 6214 ft | 270 kts | 359° |
| 2026-04-19 03:43 | 44.88453 | 0.38328 | 7047 ft | 278 kts | 9° |
| 2026-04-19 03:43 | 44.90355 | 0.38913 | 7909 ft | 281 kts | 11° |
| 2026-04-19 03:43 | 44.92273 | 0.39529 | 8800 ft | 285 kts | 14° |
| 2026-04-19 03:43 | 44.94034 | 0.40860 | 9631 ft | 294 kts | 41° |
| 2026-04-19 03:44 | 44.95199 | 0.43238 | 10440 ft | 301 kts | 69° |
| 2026-04-19 03:44 | 44.95700 | 0.46206 | 10788 ft | 324 kts | 81° |
| 2026-04-19 03:44 | 44.96004 | 0.49484 | 10980 ft | 349 kts | 83° |
| 2026-04-19 03:44 | 44.96186 | 0.51839 | 11100 ft | 366 kts | 83° |
| 2026-04-19 03:45 | 44.96466 | 0.55516 | 11359 ft | 385 kts | 83° |
| 2026-04-19 03:45 | 44.96770 | 0.59318 | 11943 ft | 393 kts | 83° |
| 2026-04-19 03:45 | 44.97093 | 0.63162 | 12656 ft | 397 kts | 82° |
| 2026-04-19 03:45 | 44.97433 | 0.67052 | 13365 ft | 401 kts | 82° |
| 2026-04-19 03:46 | 44.97778 | 0.70931 | 14039 ft | 406 kts | 82° |
| 2026-04-19 03:46 | 44.98138 | 0.74964 | 14656 ft | 411 kts | 82° |
| 2026-04-19 03:46 | 44.98493 | 0.78933 | 15276 ft | 415 kts | 82° |
| 2026-04-19 03:46 | 44.98853 | 0.82995 | 15888 ft | 420 kts | 82° |
| 2026-04-19 03:47 | 44.99295 | 0.87090 | 16475 ft | 424 kts | 73° |
| 2026-04-19 03:47 | 45.00503 | 0.90869 | 17047 ft | 424 kts | 53° |
| 2026-04-19 03:47 | 45.02511 | 0.93885 | 17680 ft | 421 kts | 34° |
| 2026-04-19 03:47 | 45.05047 | 0.95906 | 18299 ft | 419 kts | 18° |
| 2026-04-19 03:48 | 45.07866 | 0.96817 | 18801 ft | 416 kts | 0° |
| 2026-04-19 03:48 | 45.10751 | 0.96979 | 19378 ft | 416 kts | 358° |
| 2026-04-19 03:48 | 45.13657 | 0.97096 | 19926 ft | 419 kts | 358° |
| 2026-04-19 03:48 | 45.16579 | 0.97283 | 20453 ft | 423 kts | 359° |
| 2026-04-19 03:49 | 45.19525 | 0.97513 | 20986 ft | 425 kts | 359° |
| 2026-04-19 03:49 | 45.22486 | 0.97761 | 21517 ft | 428 kts | 359° |
| 2026-04-19 03:49 | 45.25470 | 0.98016 | 22004 ft | 431 kts | 359° |
| 2026-04-19 03:49 | 45.28473 | 0.98272 | 22477 ft | 434 kts | 358° |
| 2026-04-19 03:50 | 45.31494 | 0.98525 | 22952 ft | 437 kts | 358° |
| 2026-04-19 03:50 | 45.34535 | 0.98779 | 23416 ft | 439 kts | 358° |
| 2026-04-19 03:50 | 45.37595 | 0.99033 | 23854 ft | 442 kts | 358° |
| 2026-04-19 03:50 | 45.40676 | 0.99286 | 24225 ft | 445 kts | 358° |
| 2026-04-19 03:51 | 45.43772 | 0.99545 | 24590 ft | 447 kts | 358° |
| 2026-04-19 03:51 | 45.46887 | 0.99805 | 24961 ft | 450 kts | 358° |
| 2026-04-19 03:51 | 45.50018 | 1.00066 | 25336 ft | 452 kts | 358° |
| 2026-04-19 03:51 | 45.53169 | 1.00327 | 25682 ft | 454 kts | 358° |
| 2026-04-19 03:52 | 45.56333 | 1.00580 | 26036 ft | 456 kts | 358° |
| 2026-04-19 03:52 | 45.59508 | 1.00831 | 26384 ft | 459 kts | 358° |
| 2026-04-19 03:52 | 45.62704 | 1.01084 | 26713 ft | 461 kts | 358° |
| 2026-04-19 03:52 | 45.65912 | 1.01339 | 27044 ft | 463 kts | 358° |
| 2026-04-19 03:53 | 45.69136 | 1.01597 | 27364 ft | 465 kts | 358° |
| 2026-04-19 03:53 | 45.72378 | 1.01857 | 27685 ft | 467 kts | 358° |
| 2026-04-19 03:53 | 45.75628 | 1.02118 | 28008 ft | 469 kts | 358° |
| 2026-04-19 03:53 | 45.78879 | 1.02378 | 28433 ft | 467 kts | 357° |
| 2026-04-19 03:54 | 45.82104 | 1.02328 | 28929 ft | 459 kts | 349° |
| 2026-04-19 03:54 | 45.85213 | 1.01582 | 29434 ft | 450 kts | 341° |
| 2026-04-19 03:54 | 45.88245 | 1.00539 | 29925 ft | 447 kts | 340° |
| 2026-04-19 03:54 | 45.91263 | 0.99474 | 30326 ft | 447 kts | 340° |
| 2026-04-19 03:55 | 45.94283 | 0.98410 | 30675 ft | 446 kts | 340° |
| 2026-04-19 03:55 | 45.97257 | 0.97378 | 31070 ft | 444 kts | 340° |
| 2026-04-19 03:55 | 46.00300 | 0.96337 | 31493 ft | 442 kts | 340° |
| 2026-04-19 03:55 | 46.03248 | 0.95336 | 31870 ft | 441 kts | 340° |
| 2026-04-19 03:56 | 46.06236 | 0.94327 | 32218 ft | 441 kts | 340° |
| 2026-04-19 03:56 | 46.09213 | 0.93322 | 32591 ft | 439 kts | 340° |
| 2026-04-19 03:56 | 46.12184 | 0.92320 | 32992 ft | 437 kts | 340° |
| 2026-04-19 03:56 | 46.15141 | 0.91321 | 33369 ft | 436 kts | 340° |
| 2026-04-19 03:57 | 46.18090 | 0.90323 | 33725 ft | 435 kts | 340° |
| 2026-04-19 03:57 | 46.21026 | 0.89328 | 34103 ft | 433 kts | 340° |
| 2026-04-19 03:57 | 46.23954 | 0.88334 | 34451 ft | 431 kts | 340° |
| 2026-04-19 03:57 | 46.26874 | 0.87341 | 34677 ft | 432 kts | 340° |
| 2026-04-19 03:58 | 46.29802 | 0.86343 | 34860 ft | 433 kts | 340° |
| 2026-04-19 03:58 | 46.32741 | 0.85341 | 35092 ft | 434 kts | 340° |
| 2026-04-19 03:58 | 46.35677 | 0.84339 | 35322 ft | 434 kts | 340° |
| 2026-04-19 03:58 | 46.38617 | 0.83336 | 35516 ft | 435 kts | 340° |
| 2026-04-19 03:59 | 46.41566 | 0.82327 | 35721 ft | 436 kts | 340° |
| 2026-04-19 03:59 | 46.44518 | 0.81318 | 35953 ft | 436 kts | 341° |
| 2026-04-19 03:59 | 46.47470 | 0.80307 | 36171 ft | 436 kts | 341° |
| 2026-04-19 04:00 | 46.53410 | 0.78273 | 36247 ft | 440 kts | 341° |
| 2026-04-19 04:00 | 46.59489 | 0.76947 | 36252 ft | 442 kts | 347° |
| 2026-04-19 04:01 | 46.65592 | 0.75993 | 36250 ft | 440 kts | 348° |
| 2026-04-19 04:01 | 46.74676 | 0.74487 | 36247 ft | 437 kts | 347° |
| 2026-04-19 04:02 | 46.80711 | 0.73431 | 36256 ft | 436 kts | 347° |
| 2026-04-19 04:02 | 46.86744 | 0.72368 | 36258 ft | 437 kts | 347° |
| 2026-04-19 04:03 | 46.92784 | 0.71303 | 36264 ft | 438 kts | 347° |
| 2026-04-19 04:03 | 46.98844 | 0.70234 | 36267 ft | 444 kts | 347° |
| 2026-04-19 04:04 | 47.04995 | 0.69254 | 36254 ft | 448 kts | 353° |
| 2026-04-19 04:04 | 47.11280 | 0.69725 | 36260 ft | 454 kts | 359° |
| 2026-04-19 04:05 | 47.17572 | 0.70489 | 36254 ft | 454 kts | 359° |
| 2026-04-19 04:05 | 47.23859 | 0.71197 | 36267 ft | 453 kts | 359° |
| 2026-04-19 04:06 | 47.30137 | 0.71858 | 36261 ft | 452 kts | 359° |
| 2026-04-19 04:06 | 47.36402 | 0.72511 | 36267 ft | 451 kts | 359° |
| 2026-04-19 04:07 | 47.42658 | 0.73168 | 36261 ft | 451 kts | 359° |
| 2026-04-19 04:07 | 47.48908 | 0.73900 | 36266 ft | 453 kts | 3° |
| 2026-04-19 04:08 | 47.55044 | 0.76361 | 36274 ft | 460 kts | 13° |
| 2026-04-19 04:08 | 47.61096 | 0.79466 | 36266 ft | 460 kts | 14° |
| 2026-04-19 04:09 | 47.67154 | 0.82519 | 36260 ft | 460 kts | 13° |
| 2026-04-19 04:09 | 47.73223 | 0.85518 | 36265 ft | 460 kts | 13° |
| 2026-04-19 04:10 | 47.79291 | 0.88513 | 36263 ft | 460 kts | 13° |
| 2026-04-19 04:10 | 47.85329 | 0.91510 | 36260 ft | 461 kts | 13° |
| 2026-04-19 04:11 | 47.91405 | 0.94576 | 36260 ft | 461 kts | 14° |
| 2026-04-19 04:11 | 47.97485 | 0.97662 | 36261 ft | 462 kts | 14° |
| 2026-04-19 04:12 | 48.03575 | 1.00755 | 36254 ft | 462 kts | 14° |
| 2026-04-19 04:12 | 48.09668 | 1.03856 | 36262 ft | 463 kts | 14° |
| 2026-04-19 04:13 | 48.15760 | 1.06963 | 36255 ft | 463 kts | 14° |
| 2026-04-19 04:13 | 48.21862 | 1.10083 | 36261 ft | 463 kts | 14° |
| 2026-04-19 04:14 | 48.27965 | 1.13194 | 36260 ft | 464 kts | 13° |
| 2026-04-19 04:14 | 48.34084 | 1.16312 | 36260 ft | 464 kts | 13° |
| 2026-04-19 04:15 | 48.40203 | 1.19442 | 36250 ft | 464 kts | 14° |
| 2026-04-19 04:15 | 48.46317 | 1.22579 | 36260 ft | 464 kts | 13° |
| 2026-04-19 04:16 | 48.52436 | 1.25725 | 36259 ft | 465 kts | 14° |
| 2026-04-19 04:16 | 48.58555 | 1.28858 | 36255 ft | 464 kts | 13° |
| 2026-04-19 04:17 | 48.64686 | 1.31938 | 36255 ft | 464 kts | 13° |
| 2026-04-19 04:17 | 48.70821 | 1.35026 | 36263 ft | 465 kts | 13° |
| 2026-04-19 04:18 | 48.76958 | 1.38132 | 36248 ft | 465 kts | 13° |
| 2026-04-19 04:18 | 48.83090 | 1.41248 | 36259 ft | 465 kts | 13° |
| 2026-04-19 04:19 | 48.89186 | 1.44352 | 36257 ft | 465 kts | 13° |
| 2026-04-19 04:19 | 48.95258 | 1.47781 | 36249 ft | 471 kts | 23° |
| 2026-04-19 04:20 | 49.00629 | 1.53654 | 36246 ft | 483 kts | 42° |
| 2026-04-19 04:20 | 49.05120 | 1.61293 | 36254 ft | 485 kts | 45° |
| 2026-04-19 04:21 | 49.09531 | 1.69083 | 36242 ft | 485 kts | 45° |
| 2026-04-19 04:21 | 49.13986 | 1.76827 | 36247 ft | 485 kts | 45° |
| 2026-04-19 04:22 | 49.18468 | 1.84549 | 36236 ft | 486 kts | 45° |
| 2026-04-19 04:22 | 49.22945 | 1.92275 | 36245 ft | 486 kts | 45° |
| 2026-04-19 04:23 | 49.27418 | 2.00025 | 36237 ft | 486 kts | 45° |
| 2026-04-19 04:23 | 49.31891 | 2.07803 | 36270 ft | 486 kts | 45° |
| 2026-04-19 04:24 | 49.36357 | 2.15589 | 36263 ft | 487 kts | 45° |
| 2026-04-19 04:24 | 49.40821 | 2.23399 | 36271 ft | 487 kts | 45° |
| 2026-04-19 04:25 | 49.45284 | 2.31232 | 36260 ft | 487 kts | 45° |
| 2026-04-19 04:25 | 49.49745 | 2.39085 | 36265 ft | 488 kts | 46° |
| 2026-04-19 04:26 | 49.54234 | 2.46916 | 36246 ft | 487 kts | 42° |
| 2026-04-19 04:26 | 49.59517 | 2.53237 | 36256 ft | 479 kts | 27° |
| 2026-04-19 04:27 | 49.65215 | 2.58542 | 36231 ft | 479 kts | 27° |
| 2026-04-19 04:27 | 49.70885 | 2.63983 | 36243 ft | 480 kts | 28° |
| 2026-04-19 04:28 | 49.76529 | 2.69525 | 36236 ft | 481 kts | 28° |
| 2026-04-19 04:28 | 49.82183 | 2.75088 | 36243 ft | 482 kts | 28° |
| 2026-04-19 04:29 | 49.87814 | 2.80593 | 36234 ft | 482 kts | 28° |
| 2026-04-19 04:29 | 49.93493 | 2.86152 | 36243 ft | 483 kts | 29° |
| 2026-04-19 04:30 | 49.99204 | 2.91806 | 36236 ft | 484 kts | 29° |
| 2026-04-19 04:30 | 50.04850 | 2.97391 | 36243 ft | 484 kts | 29° |
| 2026-04-19 04:31 | 50.10547 | 3.03020 | 36237 ft | 485 kts | 29° |
| 2026-04-19 04:31 | 50.16247 | 3.08674 | 36246 ft | 486 kts | 29° |
| 2026-04-19 04:32 | 50.21950 | 3.14344 | 36087 ft | 489 kts | 28° |
| 2026-04-19 04:32 | 50.23946 | 3.16158 | 35576 ft | 492 kts | 23° |
| 2026-04-19 04:32 | 50.27031 | 3.18403 | 34972 ft | 486 kts | 20° |
| 2026-04-19 04:33 | 50.30141 | 3.20480 | 34303 ft | 486 kts | 19° |
| 2026-04-19 04:33 | 50.33257 | 3.22542 | 33505 ft | 486 kts | 19° |
| 2026-04-19 04:33 | 50.36360 | 3.24654 | 32730 ft | 487 kts | 19° |
| 2026-04-19 04:33 | 50.39452 | 3.26812 | 31958 ft | 487 kts | 19° |
| 2026-04-19 04:34 | 50.42522 | 3.29051 | 31302 ft | 486 kts | 21° |
| 2026-04-19 04:34 | 50.45533 | 3.31434 | 30564 ft | 485 kts | 22° |
| 2026-04-19 04:34 | 50.48544 | 3.33853 | 29671 ft | 486 kts | 22° |
| 2026-04-19 04:34 | 50.51556 | 3.36243 | 28751 ft | 485 kts | 21° |
| 2026-04-19 04:35 | 50.54603 | 3.38483 | 27878 ft | 482 kts | 19° |
| 2026-04-19 04:35 | 50.57677 | 3.40595 | 26927 ft | 481 kts | 18° |
| 2026-04-19 04:35 | 50.60751 | 3.42653 | 26148 ft | 478 kts | 18° |
| 2026-04-19 04:35 | 50.63797 | 3.44694 | 25480 ft | 473 kts | 18° |
| 2026-04-19 04:36 | 50.66759 | 3.46701 | 24826 ft | 468 kts | 19° |
| 2026-04-19 04:36 | 50.69728 | 3.48732 | 24142 ft | 463 kts | 19° |
| 2026-04-19 04:36 | 50.72666 | 3.50757 | 23428 ft | 459 kts | 19° |
| 2026-04-19 04:36 | 50.75580 | 3.52774 | 22681 ft | 454 kts | 19° |
| 2026-04-19 04:37 | 50.78456 | 3.54769 | 22020 ft | 448 kts | 19° |
| 2026-04-19 04:37 | 50.81294 | 3.56739 | 21345 ft | 443 kts | 19° |
| 2026-04-19 04:37 | 50.84099 | 3.58687 | 20692 ft | 438 kts | 20° |
| 2026-04-19 04:37 | 50.86879 | 3.60620 | 20042 ft | 434 kts | 20° |
| 2026-04-19 04:38 | 50.89646 | 3.62458 | 19403 ft | 428 kts | 15° |
| 2026-04-19 04:38 | 50.92488 | 3.63669 | 18807 ft | 419 kts | 6° |
| 2026-04-19 04:38 | 50.95347 | 3.64132 | 18231 ft | 409 kts | 358° |
| 2026-04-19 04:38 | 50.98176 | 3.64284 | 17580 ft | 405 kts | 358° |
| 2026-04-19 04:39 | 51.00977 | 3.64410 | 16954 ft | 400 kts | 358° |
| 2026-04-19 04:39 | 51.03751 | 3.64546 | 16333 ft | 397 kts | 358° |
| 2026-04-19 04:39 | 51.06498 | 3.64699 | 15714 ft | 393 kts | 358° |
| 2026-04-19 04:39 | 51.09223 | 3.64865 | 15106 ft | 390 kts | 359° |
| 2026-04-19 04:40 | 51.11927 | 3.65038 | 14507 ft | 387 kts | 359° |
| 2026-04-19 04:40 | 51.14610 | 3.65213 | 13886 ft | 385 kts | 359° |
| 2026-04-19 04:40 | 51.17275 | 3.65387 | 13228 ft | 382 kts | 359° |
| 2026-04-19 04:40 | 51.19921 | 3.65560 | 12601 ft | 379 kts | 359° |
| 2026-04-19 04:41 | 51.22537 | 3.65844 | 11982 ft | 378 kts | 8° |
| 2026-04-19 04:41 | 51.24998 | 3.67289 | 11491 ft | 378 kts | 28° |
| 2026-04-19 04:41 | 51.27131 | 3.69627 | 11317 ft | 365 kts | 34° |
| 2026-04-19 04:41 | 51.29140 | 3.71992 | 11144 ft | 353 kts | 34° |
| 2026-04-19 04:42 | 51.31081 | 3.74279 | 10989 ft | 341 kts | 34° |
| 2026-04-19 04:42 | 51.32966 | 3.76483 | 10838 ft | 330 kts | 34° |
| 2026-04-19 04:42 | 51.34801 | 3.78608 | 10711 ft | 321 kts | 33° |
| 2026-04-19 04:42 | 51.36583 | 3.80661 | 10563 ft | 311 kts | 33° |
| 2026-04-19 04:43 | 51.38319 | 3.82657 | 10441 ft | 302 kts | 33° |
| 2026-04-19 04:43 | 51.40003 | 3.84594 | 10318 ft | 294 kts | 33° |
| 2026-04-19 04:43 | 51.41640 | 3.86478 | 10163 ft | 287 kts | 33° |
| 2026-04-19 04:43 | 51.43259 | 3.88346 | 9874 ft | 286 kts | 33° |
| 2026-04-19 04:44 | 51.44869 | 3.90208 | 9576 ft | 285 kts | 33° |
| 2026-04-19 04:44 | 51.46471 | 3.92062 | 9290 ft | 283 kts | 33° |
| 2026-04-19 04:44 | 51.48061 | 3.93905 | 8992 ft | 282 kts | 33° |
| 2026-04-19 04:44 | 51.49645 | 3.95742 | 8710 ft | 280 kts | 33° |
| 2026-04-19 04:45 | 51.51222 | 3.97572 | 8423 ft | 279 kts | 33° |
| 2026-04-19 04:45 | 51.52791 | 3.99395 | 8135 ft | 278 kts | 33° |
| 2026-04-19 04:45 | 51.54353 | 4.01210 | 7852 ft | 276 kts | 33° |
| 2026-04-19 04:45 | 51.55906 | 4.03018 | 7580 ft | 275 kts | 33° |
| 2026-04-19 04:46 | 51.57455 | 4.04822 | 7307 ft | 275 kts | 33° |
| 2026-04-19 04:46 | 51.59004 | 4.06628 | 7014 ft | 275 kts | 33° |
| 2026-04-19 04:46 | 51.60551 | 4.08434 | 6746 ft | 275 kts | 33° |
| 2026-04-19 04:46 | 51.62098 | 4.10243 | 6432 ft | 274 kts | 33° |
| 2026-04-19 04:47 | 51.63639 | 4.12040 | 6150 ft | 273 kts | 32° |
| 2026-04-19 04:47 | 51.65178 | 4.13835 | 5844 ft | 273 kts | 33° |
| 2026-04-19 04:47 | 51.66690 | 4.15609 | 5574 ft | 272 kts | 33° |
| 2026-04-19 04:47 | 51.68214 | 4.17396 | 5297 ft | 270 kts | 33° |
| 2026-04-19 04:48 | 51.69731 | 4.19177 | 5040 ft | 270 kts | 33° |
| 2026-04-19 04:48 | 51.71271 | 4.20982 | 4732 ft | 270 kts | 33° |
| 2026-04-19 04:48 | 51.72762 | 4.22734 | 4503 ft | 267 kts | 32° |
| 2026-04-19 04:48 | 51.74399 | 4.23933 | 4366 ft | 253 kts | 5° |
| 2026-04-19 04:49 | 51.76104 | 4.23920 | 4267 ft | 240 kts | 348° |
| 2026-04-19 04:49 | 51.77722 | 4.23486 | 4161 ft | 231 kts | 346° |
| 2026-04-19 04:49 | 51.79280 | 4.23023 | 4092 ft | 224 kts | 345° |
| 2026-04-19 04:49 | 51.80803 | 4.22580 | 3929 ft | 221 kts | 346° |
| 2026-04-19 04:50 | 51.82330 | 4.22153 | 3653 ft | 227 kts | 346° |
| 2026-04-19 04:50 | 51.83913 | 4.21719 | 3321 ft | 232 kts | 346° |
| 2026-04-19 04:50 | 51.85525 | 4.21599 | 3155 ft | 233 kts | 11° |
| 2026-04-19 04:50 | 51.86875 | 4.22915 | 3028 ft | 228 kts | 42° |
| 2026-04-19 04:51 | 51.87924 | 4.24839 | 2736 ft | 226 kts | 48° |
| 2026-04-19 04:51 | 51.88875 | 4.26880 | 2404 ft | 228 kts | 54° |
| 2026-04-19 04:51 | 51.89733 | 4.29025 | 2091 ft | 226 kts | 56° |
| 2026-04-19 04:51 | 51.90571 | 4.31164 | 1789 ft | 224 kts | 55° |
| 2026-04-19 04:52 | 51.91403 | 4.33257 | 1469 ft | 215 kts | 56° |
| 2026-04-19 04:52 | 51.92190 | 4.35235 | 1170 ft | 202 kts | 56° |
| 2026-04-19 04:52 | 51.92927 | 4.37090 | 916 ft | 189 kts | 56° |
| 2026-04-19 04:52 | 51.93614 | 4.38816 | 672 ft | 174 kts | 56° |
| 2026-04-19 04:53 | 51.94234 | 4.40378 | 484 ft | 157 kts | 56° |
| 2026-04-19 04:53 | 51.94803 | 4.41782 | 222 ft | 147 kts | 57° |
| 2026-04-19 04:53 | 51.95356 | 4.43190 | 19 ft | 147 kts | 56° |
| 2026-04-19 04:53 | 51.95825 | 4.44376 | -1 ft | 74 kts | 57° |
| 2026-04-19 04:54 | 51.95891 | 4.44687 | -1 ft | 13 kts | 126° |
| 2026-04-19 04:54 | 51.95814 | 4.44759 | 0 ft | 13 kts | 184° |
| 2026-04-19 04:54 | 51.95749 | 4.44663 | 0 ft | 13 kts | 237° |
| 2026-04-19 04:54 | 51.95700 | 4.44543 | 0 ft | 13 kts | 237° |
| 2026-04-19 04:55 | 51.95638 | 4.44388 | 0 ft | 19 kts | 237° |
| 2026-04-19 04:55 | 51.95564 | 4.44208 | 0 ft | 19 kts | 236° |
| 2026-04-19 04:55 | 51.95495 | 4.44032 | 0 ft | 18 kts | 238° |
| 2026-04-19 04:55 | 51.95429 | 4.43863 | 1 ft | 18 kts | 237° |
| 2026-04-19 04:56 | 51.95362 | 4.43697 | 0 ft | 17 kts | 237° |
| 2026-04-19 04:56 | 51.95299 | 4.43543 | 0 ft | 16 kts | 230° |
| 2026-04-19 04:56 | 51.95197 | 4.43542 | 0 ft | 16 kts | 189° |
| 2026-04-19 04:56 | 51.95132 | 4.43407 | 0 ft | 15 kts | 236° |
| 2026-04-19 04:57 | 51.95138 | 4.43295 | 0 ft | 10 kts | 326° |
| 2026-04-19 04:57 | 51.95142 | 4.43291 | 0 ft | 0 kts | 328° |